sensor_id;sensor_type;location;lat;lon;timestamp;temperature;humidity
59148;DHT22;44930;52.878;6.168;2022-12-01T00:00:31;6.00;99.90
59148;DHT22;44930;52.878;6.168;2022-12-01T00:02:58;5.90;99.90
59148;DHT22;44930;52.878;6.168;2022-12-01T00:05:23;5.90;99.90
59148;DHT22;44930;52.878;6.168;2022-12-01T00:07:49;5.90;99.90
59148;DHT22;44930;52.878;6.168;2022-12-01T00:10:16;6.00;99.90
59148;DHT22;44930;52.878;6.168;2022-12-01T00:13:01;6.20;99.90
59148;DHT22;44930;52.878;6.168;2022-12-01T00:15:32;6.20;99.90
59148;DHT22;44930;52.878;6.168;2022-12-01T00:17:59;5.90;99.90
59148;DHT22;44930;52.878;6.168;2022-12-01T00:20:25;5.90;99.90
59148;DHT22;44930;52.878;6.168;2022-12-01T00:22:51;5.90;99.90
59148;DHT22;44930;52.878;6.168;2022-12-01T00:25:18;5.90;99.90
59148;DHT22;44930;52.878;6.168;2022-12-01T00:27:48;5.80;99.90
59148;DHT22;44930;52.878;6.168;2022-12-01T00:30:14;5.80;99.90
59148;DHT22;44930;52.878;6.168;2022-12-01T00:32:40;5.80;99.90
59148;DHT22;44930;52.878;6.168;2022-12-01T00:35:06;5.80;99.90
59148;DHT22;44930;52.878;6.168;2022-12-01T00:37:33;5.80;99.90
59148;DHT22;44930;52.878;6.168;2022-12-01T00:39:59;5.80;99.90
59148;DHT22;44930;52.878;6.168;2022-12-01T00:49:43;5.80;99.90
59148;DHT22;44930;52.878;6.168;2022-12-01T00:52:11;5.80;99.90
59148;DHT22;44930;52.878;6.168;2022-12-01T00:54:37;5.80;99.90
59148;DHT22;44930;52.878;6.168;2022-12-01T00:57:02;5.80;99.90
59148;DHT22;44930;52.878;6.168;2022-12-01T00:59:28;5.80;99.90
59148;DHT22;44930;52.878;6.168;2022-12-01T01:01:53;5.80;99.90
59148;DHT22;44930;52.878;6.168;2022-12-01T01:04:19;5.70;99.90
59148;DHT22;44930;52.878;6.168;2022-12-01T01:06:45;5.90;99.90
59148;DHT22;44930;52.878;6.168;2022-12-01T01:09:11;5.70;99.90
59148;DHT22;44930;52.878;6.168;2022-12-01T01:11:38;5.80;99.90
59148;DHT22;44930;52.878;6.168;2022-12-01T01:14:04;5.70;99.90
59148;DHT22;44930;52.878;6.168;2022-12-01T01:16:30;6.00;99.90
59148;DHT22;44930;52.878;6.168;2022-12-01T01:18:56;5.80;99.90
59148;DHT22;44930;52.878;6.168;2022-12-01T01:21:23;5.80;99.90
59148;DHT22;44930;52.878;6.168;2022-12-01T01:23:49;5.80;99.90
59148;DHT22;44930;52.878;6.168;2022-12-01T01:26:25;6.00;99.90
59148;DHT22;44930;52.878;6.168;2022-12-01T01:28:51;5.80;99.90
59148;DHT22;44930;52.878;6.168;2022-12-01T01:31:20;5.70;99.90
59148;DHT22;44930;52.878;6.168;2022-12-01T01:33:46;5.80;99.90
59148;DHT22;44930;52.878;6.168;2022-12-01T01:36:13;5.70;99.90
59148;DHT22;44930;52.878;6.168;2022-12-01T01:38:39;5.70;99.90
59148;DHT22;44930;52.878;6.168;2022-12-01T01:41:04;5.70;99.90
59148;DHT22;44930;52.878;6.168;2022-12-01T01:43:49;5.50;99.90
59148;DHT22;44930;52.878;6.168;2022-12-01T01:46:26;5.70;99.90
59148;DHT22;44930;52.878;6.168;2022-12-01T01:49:12;5.70;99.90
59148;DHT22;44930;52.878;6.168;2022-12-01T01:51:48;5.50;99.90
59148;DHT22;44930;52.878;6.168;2022-12-01T01:54:28;5.60;99.90
59148;DHT22;44930;52.878;6.168;2022-12-01T01:56:56;5.70;99.90
59148;DHT22;44930;52.878;6.168;2022-12-01T01:59:27;5.80;99.90
59148;DHT22;44930;52.878;6.168;2022-12-01T02:02:02;6.00;99.90
59148;DHT22;44930;52.878;6.168;2022-12-01T02:04:33;5.70;99.90
59148;DHT22;44930;52.878;6.168;2022-12-01T02:06:59;5.60;99.90
59148;DHT22;44930;52.878;6.168;2022-12-01T02:09:24;5.60;99.90
59148;DHT22;44930;52.878;6.168;2022-12-01T02:20:53;5.90;99.90
59148;DHT22;44930;52.878;6.168;2022-12-01T02:29:36;5.50;99.90
59148;DHT22;44930;52.878;6.168;2022-12-01T02:34:51;5.60;99.90
59148;DHT22;44930;52.878;6.168;2022-12-01T02:40:27;5.50;99.90
59148;DHT22;44930;52.878;6.168;2022-12-01T02:43:26;5.70;99.90
59148;DHT22;44930;52.878;6.168;2022-12-01T02:48:50;5.50;99.90
59148;DHT22;44930;52.878;6.168;2022-12-01T02:51:27;5.50;99.90
59148;DHT22;44930;52.878;6.168;2022-12-01T02:53:58;5.50;99.90
59148;DHT22;44930;52.878;6.168;2022-12-01T02:56:25;5.50;99.90
59148;DHT22;44930;52.878;6.168;2022-12-01T02:58:50;5.60;99.90
59148;DHT22;44930;52.878;6.168;2022-12-01T03:01:36;5.30;99.90
59148;DHT22;44930;52.878;6.168;2022-12-01T03:15:00;5.80;99.90
59148;DHT22;44930;52.878;6.168;2022-12-01T03:17:33;5.70;99.90
59148;DHT22;44930;52.878;6.168;2022-12-01T03:20:15;5.80;99.90
59148;DHT22;44930;52.878;6.168;2022-12-01T03:22:52;5.30;99.90
59148;DHT22;44930;52.878;6.168;2022-12-01T03:25:20;5.70;99.90
59148;DHT22;44930;52.878;6.168;2022-12-01T03:30:15;5.90;99.90
59148;DHT22;44930;52.878;6.168;2022-12-01T03:32:57;5.50;99.90
59148;DHT22;44930;52.878;6.168;2022-12-01T03:35:29;5.20;99.90
59148;DHT22;44930;52.878;6.168;2022-12-01T03:38:04;5.50;99.90
59148;DHT22;44930;52.878;6.168;2022-12-01T03:40:35;5.50;99.90
59148;DHT22;44930;52.878;6.168;2022-12-01T03:43:06;5.60;99.90
59148;DHT22;44930;52.878;6.168;2022-12-01T03:45:41;5.60;99.90
59148;DHT22;44930;52.878;6.168;2022-12-01T03:48:11;5.50;99.90
59148;DHT22;44930;52.878;6.168;2022-12-01T03:53:51;5.60;99.90
59148;DHT22;44930;52.878;6.168;2022-12-01T03:56:21;5.40;99.90
59148;DHT22;44930;52.878;6.168;2022-12-01T03:58:50;5.60;99.90
59148;DHT22;44930;52.878;6.168;2022-12-01T04:01:17;5.50;99.90
59148;DHT22;44930;52.878;6.168;2022-12-01T04:03:45;5.40;99.90
59148;DHT22;44930;52.878;6.168;2022-12-01T04:06:11;5.50;99.90
59148;DHT22;44930;52.878;6.168;2022-12-01T04:08:37;5.40;99.90
59148;DHT22;44930;52.878;6.168;2022-12-01T04:11:03;5.40;99.90
59148;DHT22;44930;52.878;6.168;2022-12-01T04:13:49;5.30;99.90
59148;DHT22;44930;52.878;6.168;2022-12-01T04:16:14;5.50;99.90
59148;DHT22;44930;52.878;6.168;2022-12-01T04:18:40;5.20;99.90
59148;DHT22;44930;52.878;6.168;2022-12-01T04:26:16;5.10;99.90
59148;DHT22;44930;52.878;6.168;2022-12-01T04:31:08;5.00;99.90
59148;DHT22;44930;52.878;6.168;2022-12-01T04:33:33;5.10;99.90
59148;DHT22;44930;52.878;6.168;2022-12-01T04:35:59;4.90;99.90
59148;DHT22;44930;52.878;6.168;2022-12-01T04:38:25;4.90;99.90
59148;DHT22;44930;52.878;6.168;2022-12-01T04:40:51;5.00;99.90
59148;DHT22;44930;52.878;6.168;2022-12-01T04:45:43;4.80;99.90
59148;DHT22;44930;52.878;6.168;2022-12-01T04:48:09;5.00;99.90
59148;DHT22;44930;52.878;6.168;2022-12-01T04:50:34;5.00;99.90
59148;DHT22;44930;52.878;6.168;2022-12-01T04:53:00;5.00;99.90
59148;DHT22;44930;52.878;6.168;2022-12-01T04:55:25;5.00;99.90
59148;DHT22;44930;52.878;6.168;2022-12-01T04:57:51;5.00;99.90
59148;DHT22;44930;52.878;6.168;2022-12-01T05:00:16;5.10;99.90
59148;DHT22;44930;52.878;6.168;2022-12-01T05:02:42;5.00;99.90
59148;DHT22;44930;52.878;6.168;2022-12-01T05:05:09;4.90;99.90
59148;DHT22;44930;52.878;6.168;2022-12-01T05:07:35;5.10;99.90
59148;DHT22;44930;52.878;6.168;2022-12-01T05:10:00;5.10;99.90
59148;DHT22;44930;52.878;6.168;2022-12-01T05:12:26;5.20;99.90
59148;DHT22;44930;52.878;6.168;2022-12-01T05:14:51;5.00;99.90
59148;DHT22;44930;52.878;6.168;2022-12-01T05:17:17;5.10;99.90
59148;DHT22;44930;52.878;6.168;2022-12-01T05:19:42;5.00;99.90
59148;DHT22;44930;52.878;6.168;2022-12-01T05:22:26;5.10;99.90
59148;DHT22;44930;52.878;6.168;2022-12-01T05:24:52;5.10;99.90
59148;DHT22;44930;52.878;6.168;2022-12-01T05:27:17;5.00;99.90
59148;DHT22;44930;52.878;6.168;2022-12-01T05:29:43;5.30;99.90
59148;DHT22;44930;52.878;6.168;2022-12-01T05:32:08;5.20;99.90
59148;DHT22;44930;52.878;6.168;2022-12-01T05:34:34;5.10;99.90
59148;DHT22;44930;52.878;6.168;2022-12-01T05:36:59;5.20;99.90
59148;DHT22;44930;52.878;6.168;2022-12-01T05:39:25;5.20;99.90
59148;DHT22;44930;52.878;6.168;2022-12-01T05:41:51;5.10;99.90
59148;DHT22;44930;52.878;6.168;2022-12-01T05:44:17;5.10;99.90
59148;DHT22;44930;52.878;6.168;2022-12-01T05:46:42;5.10;99.90
59148;DHT22;44930;52.878;6.168;2022-12-01T05:49:08;5.10;99.90
59148;DHT22;44930;52.878;6.168;2022-12-01T05:51:33;5.10;99.90
59148;DHT22;44930;52.878;6.168;2022-12-01T05:53:59;5.10;99.90
59148;DHT22;44930;52.878;6.168;2022-12-01T05:58:51;5.10;99.90
59148;DHT22;44930;52.878;6.168;2022-12-01T06:01:16;4.90;99.90
59148;DHT22;44930;52.878;6.168;2022-12-01T06:06:08;5.30;99.90
59148;DHT22;44930;52.878;6.168;2022-12-01T06:08:33;5.10;99.90
59148;DHT22;44930;52.878;6.168;2022-12-01T06:10:59;5.20;99.90
59148;DHT22;44930;52.878;6.168;2022-12-01T06:13:25;5.30;99.90
59148;DHT22;44930;52.878;6.168;2022-12-01T06:18:30;5.10;99.90
59148;DHT22;44930;52.878;6.168;2022-12-01T06:20:56;5.30;99.90
59148;DHT22;44930;52.878;6.168;2022-12-01T06:23:22;4.90;99.90
59148;DHT22;44930;52.878;6.168;2022-12-01T06:25:48;5.20;99.90
59148;DHT22;44930;52.878;6.168;2022-12-01T06:28:13;5.30;99.90
59148;DHT22;44930;52.878;6.168;2022-12-01T06:30:39;5.30;99.90
59148;DHT22;44930;52.878;6.168;2022-12-01T06:33:05;5.30;99.90
59148;DHT22;44930;52.878;6.168;2022-12-01T06:35:30;5.20;99.90
59148;DHT22;44930;52.878;6.168;2022-12-01T06:37:56;5.20;99.90
59148;DHT22;44930;52.878;6.168;2022-12-01T06:40:22;5.10;99.90
59148;DHT22;44930;52.878;6.168;2022-12-01T06:42:47;5.20;99.90
59148;DHT22;44930;52.878;6.168;2022-12-01T06:45:13;5.20;99.90
59148;DHT22;44930;52.878;6.168;2022-12-01T06:47:39;5.00;99.90
59148;DHT22;44930;52.878;6.168;2022-12-01T06:50:05;4.90;99.90
59148;DHT22;44930;52.878;6.168;2022-12-01T06:52:33;4.80;99.90
59148;DHT22;44930;52.878;6.168;2022-12-01T06:57:26;5.10;99.90
59148;DHT22;44930;52.878;6.168;2022-12-01T06:59:51;4.90;99.90
59148;DHT22;44930;52.878;6.168;2022-12-01T07:04:43;4.80;99.90
59148;DHT22;44930;52.878;6.168;2022-12-01T07:07:08;4.80;99.90
59148;DHT22;44930;52.878;6.168;2022-12-01T07:09:35;4.80;99.90
59148;DHT22;44930;52.878;6.168;2022-12-01T07:12:00;4.80;99.90
59148;DHT22;44930;52.878;6.168;2022-12-01T07:14:26;4.80;99.90
59148;DHT22;44930;52.878;6.168;2022-12-01T07:16:52;4.70;99.90
59148;DHT22;44930;52.878;6.168;2022-12-01T07:19:17;4.60;99.90
59148;DHT22;44930;52.878;6.168;2022-12-01T07:21:43;4.60;99.90
59148;DHT22;44930;52.878;6.168;2022-12-01T07:24:09;4.60;99.90
59148;DHT22;44930;52.878;6.168;2022-12-01T07:26:37;4.40;99.90
59148;DHT22;44930;52.878;6.168;2022-12-01T07:29:02;4.40;99.90
59148;DHT22;44930;52.878;6.168;2022-12-01T07:31:28;4.20;99.90
59148;DHT22;44930;52.878;6.168;2022-12-01T07:36:20;4.20;99.90
59148;DHT22;44930;52.878;6.168;2022-12-01T07:38:45;4.10;99.90
59148;DHT22;44930;52.878;6.168;2022-12-01T07:41:16;4.00;99.90
59148;DHT22;44930;52.878;6.168;2022-12-01T07:43:46;4.10;99.90
59148;DHT22;44930;52.878;6.168;2022-12-01T07:46:19;3.90;99.90
59148;DHT22;44930;52.878;6.168;2022-12-01T07:51:12;3.60;99.90
59148;DHT22;44930;52.878;6.168;2022-12-01T07:53:41;3.70;99.90
59148;DHT22;44930;52.878;6.168;2022-12-01T07:56:07;3.50;99.90
59148;DHT22;44930;52.878;6.168;2022-12-01T07:58:33;3.90;99.90
59148;DHT22;44930;52.878;6.168;2022-12-01T08:01:11;3.70;99.90
59148;DHT22;44930;52.878;6.168;2022-12-01T08:03:37;3.50;99.90
59148;DHT22;44930;52.878;6.168;2022-12-01T08:06:04;3.50;99.90
59148;DHT22;44930;52.878;6.168;2022-12-01T08:08:31;3.60;99.90
59148;DHT22;44930;52.878;6.168;2022-12-01T08:11:02;3.30;99.90
59148;DHT22;44930;52.878;6.168;2022-12-01T08:13:28;3.40;99.90
59148;DHT22;44930;52.878;6.168;2022-12-01T08:15:54;3.50;99.90
59148;DHT22;44930;52.878;6.168;2022-12-01T08:18:20;3.40;99.90
59148;DHT22;44930;52.878;6.168;2022-12-01T08:20:47;3.40;99.90
59148;DHT22;44930;52.878;6.168;2022-12-01T08:23:13;3.10;99.90
59148;DHT22;44930;52.878;6.168;2022-12-01T08:25:39;3.40;99.90
59148;DHT22;44930;52.878;6.168;2022-12-01T08:28:05;3.40;99.90
59148;DHT22;44930;52.878;6.168;2022-12-01T08:30:30;3.60;99.90
59148;DHT22;44930;52.878;6.168;2022-12-01T08:32:56;3.10;99.90
59148;DHT22;44930;52.878;6.168;2022-12-01T08:35:23;3.40;99.90
59148;DHT22;44930;52.878;6.168;2022-12-01T08:37:52;3.30;99.90
59148;DHT22;44930;52.878;6.168;2022-12-01T08:40:18;3.40;99.90
59148;DHT22;44930;52.878;6.168;2022-12-01T08:42:44;3.30;99.90
59148;DHT22;44930;52.878;6.168;2022-12-01T08:45:10;3.20;99.90
59148;DHT22;44930;52.878;6.168;2022-12-01T08:47:36;3.20;99.90
59148;DHT22;44930;52.878;6.168;2022-12-01T08:50:01;3.30;99.90
59148;DHT22;44930;52.878;6.168;2022-12-01T08:52:33;3.20;99.90
59148;DHT22;44930;52.878;6.168;2022-12-01T08:54:59;3.20;99.90
59148;DHT22;44930;52.878;6.168;2022-12-01T08:57:24;3.30;99.90
59148;DHT22;44930;52.878;6.168;2022-12-01T08:59:50;3.30;99.90
59148;DHT22;44930;52.878;6.168;2022-12-01T09:02:16;3.50;99.90
59148;DHT22;44930;52.878;6.168;2022-12-01T09:04:46;3.50;99.90
59148;DHT22;44930;52.878;6.168;2022-12-01T09:07:13;3.50;99.90
59148;DHT22;44930;52.878;6.168;2022-12-01T09:09:41;3.60;99.90
59148;DHT22;44930;52.878;6.168;2022-12-01T09:12:07;3.70;99.90
59148;DHT22;44930;52.878;6.168;2022-12-01T09:14:38;3.80;99.90
59148;DHT22;44930;52.878;6.168;2022-12-01T09:17:05;3.90;99.90
59148;DHT22;44930;52.878;6.168;2022-12-01T09:19:30;3.90;99.90
59148;DHT22;44930;52.878;6.168;2022-12-01T09:21:56;3.80;99.90
59148;DHT22;44930;52.878;6.168;2022-12-01T09:24:22;3.90;99.90
59148;DHT22;44930;52.878;6.168;2022-12-01T09:26:48;3.90;99.90
59148;DHT22;44930;52.878;6.168;2022-12-01T09:29:15;3.90;99.90
59148;DHT22;44930;52.878;6.168;2022-12-01T09:31:41;3.90;99.90
59148;DHT22;44930;52.878;6.168;2022-12-01T09:34:13;4.00;99.90
59148;DHT22;44930;52.878;6.168;2022-12-01T09:36:39;4.00;99.90
59148;DHT22;44930;52.878;6.168;2022-12-01T09:39:10;4.10;99.90
59148;DHT22;44930;52.878;6.168;2022-12-01T09:41:39;4.60;99.90
59148;DHT22;44930;52.878;6.168;2022-12-01T09:50:06;4.20;99.90
59148;DHT22;44930;52.878;6.168;2022-12-01T09:52:41;4.10;99.90
59148;DHT22;44930;52.878;6.168;2022-12-01T09:55:13;4.10;99.90
59148;DHT22;44930;52.878;6.168;2022-12-01T09:57:40;4.10;99.90
59148;DHT22;44930;52.878;6.168;2022-12-01T10:00:13;4.30;99.90
59148;DHT22;44930;52.878;6.168;2022-12-01T10:02:51;4.20;99.90
59148;DHT22;44930;52.878;6.168;2022-12-01T10:05:21;4.20;99.90
59148;DHT22;44930;52.878;6.168;2022-12-01T10:07:57;4.20;99.90
59148;DHT22;44930;52.878;6.168;2022-12-01T10:10:29;4.30;99.90
59148;DHT22;44930;52.878;6.168;2022-12-01T10:12:55;4.30;99.90
59148;DHT22;44930;52.878;6.168;2022-12-01T10:18:09;4.30;99.90
59148;DHT22;44930;52.878;6.168;2022-12-01T10:20:47;4.40;99.90
59148;DHT22;44930;52.878;6.168;2022-12-01T10:23:27;4.50;99.90
59148;DHT22;44930;52.878;6.168;2022-12-01T10:26:02;4.40;99.90
59148;DHT22;44930;52.878;6.168;2022-12-01T10:34:13;4.70;99.90
59148;DHT22;44930;52.878;6.168;2022-12-01T10:36:40;5.00;99.90
59148;DHT22;44930;52.878;6.168;2022-12-01T10:39:06;4.90;99.90
59148;DHT22;44930;52.878;6.168;2022-12-01T10:41:39;4.90;99.90
59148;DHT22;44930;52.878;6.168;2022-12-01T10:44:06;4.90;99.90
59148;DHT22;44930;52.878;6.168;2022-12-01T10:46:49;4.80;99.90
59148;DHT22;44930;52.878;6.168;2022-12-01T10:49:16;4.80;99.90
59148;DHT22;44930;52.878;6.168;2022-12-01T10:51:55;5.50;99.90
59148;DHT22;44930;52.878;6.168;2022-12-01T10:54:22;5.40;99.90
59148;DHT22;44930;52.878;6.168;2022-12-01T10:56:54;5.30;99.90
59148;DHT22;44930;52.878;6.168;2022-12-01T10:59:25;5.40;99.90
59148;DHT22;44930;52.878;6.168;2022-12-01T11:01:52;5.50;99.90
59148;DHT22;44930;52.878;6.168;2022-12-01T11:04:26;5.80;99.90
59148;DHT22;44930;52.878;6.168;2022-12-01T11:06:53;5.60;99.90
59148;DHT22;44930;52.878;6.168;2022-12-01T11:09:28;5.40;99.90
59148;DHT22;44930;52.878;6.168;2022-12-01T11:11:55;5.40;99.90
59148;DHT22;44930;52.878;6.168;2022-12-01T11:14:27;5.70;99.90
59148;DHT22;44930;52.878;6.168;2022-12-01T11:16:56;5.70;99.90
59148;DHT22;44930;52.878;6.168;2022-12-01T11:19:38;5.80;99.90
59148;DHT22;44930;52.878;6.168;2022-12-01T11:22:30;6.20;99.90
59148;DHT22;44930;52.878;6.168;2022-12-01T11:25:01;6.00;99.90
59148;DHT22;44930;52.878;6.168;2022-12-01T11:27:49;6.30;99.90
59148;DHT22;44930;52.878;6.168;2022-12-01T11:32:52;5.70;99.90
59148;DHT22;44930;52.878;6.168;2022-12-01T11:35:20;6.20;99.90
59148;DHT22;44930;52.878;6.168;2022-12-01T11:37:52;6.30;99.90
59148;DHT22;44930;52.878;6.168;2022-12-01T11:40:29;6.70;99.90
59148;DHT22;44930;52.878;6.168;2022-12-01T11:42:58;6.30;99.90
59148;DHT22;44930;52.878;6.168;2022-12-01T11:45:28;6.70;99.90
59148;DHT22;44930;52.878;6.168;2022-12-01T11:50:29;6.40;99.90
59148;DHT22;44930;52.878;6.168;2022-12-01T11:52:55;6.60;99.90
59148;DHT22;44930;52.878;6.168;2022-12-01T11:55:26;6.40;99.90
59148;DHT22;44930;52.878;6.168;2022-12-01T11:57:56;6.50;99.90
59148;DHT22;44930;52.878;6.168;2022-12-01T12:00:25;6.70;99.90
59148;DHT22;44930;52.878;6.168;2022-12-01T12:06:05;6.90;99.90
59148;DHT22;44930;52.878;6.168;2022-12-01T12:16:51;7.00;99.90
59148;DHT22;44930;52.878;6.168;2022-12-01T12:19:24;6.80;99.90
59148;DHT22;44930;52.878;6.168;2022-12-01T12:31:02;7.10;99.90
59148;DHT22;44930;52.878;6.168;2022-12-01T12:36:05;7.00;99.90
59148;DHT22;44930;52.878;6.168;2022-12-01T12:46:17;7.20;99.90
59148;DHT22;44930;52.878;6.168;2022-12-01T12:49:03;7.00;99.90
59148;DHT22;44930;52.878;6.168;2022-12-01T12:57:28;7.70;99.90
59148;DHT22;44930;52.878;6.168;2022-12-01T13:00:03;7.20;99.90
59148;DHT22;44930;52.878;6.168;2022-12-01T13:02:48;7.10;99.90
59148;DHT22;44930;52.878;6.168;2022-12-01T13:08:07;7.10;99.90
59148;DHT22;44930;52.878;6.168;2022-12-01T13:11:14;6.90;99.90
59148;DHT22;44930;52.878;6.168;2022-12-01T13:16:43;7.30;99.90
59148;DHT22;44930;52.878;6.168;2022-12-01T13:19:33;7.30;99.90
59148;DHT22;44930;52.878;6.168;2022-12-01T13:22:01;7.00;99.90
59148;DHT22;44930;52.878;6.168;2022-12-01T13:24:28;7.00;99.90
59148;DHT22;44930;52.878;6.168;2022-12-01T13:26:58;7.10;99.90
59148;DHT22;44930;52.878;6.168;2022-12-01T13:29:25;7.00;99.90
59148;DHT22;44930;52.878;6.168;2022-12-01T13:31:53;7.00;99.90
59148;DHT22;44930;52.878;6.168;2022-12-01T13:34:39;7.20;99.90
59148;DHT22;44930;52.878;6.168;2022-12-01T13:37:07;7.10;99.90
59148;DHT22;44930;52.878;6.168;2022-12-01T13:39:36;7.10;99.90
59148;DHT22;44930;52.878;6.168;2022-12-01T13:44:54;7.20;99.90
59148;DHT22;44930;52.878;6.168;2022-12-01T13:49:50;7.00;99.90
59148;DHT22;44930;52.878;6.168;2022-12-01T13:57:34;6.80;99.90
59148;DHT22;44930;52.878;6.168;2022-12-01T14:00:00;6.80;99.90
59148;DHT22;44930;52.878;6.168;2022-12-01T14:02:30;6.90;99.90
59148;DHT22;44930;52.878;6.168;2022-12-01T14:07:50;6.70;99.90
59148;DHT22;44930;52.878;6.168;2022-12-01T14:10:30;6.70;99.90
59148;DHT22;44930;52.878;6.168;2022-12-01T14:13:00;6.70;99.90
59148;DHT22;44930;52.878;6.168;2022-12-01T14:15:38;6.80;99.90
59148;DHT22;44930;52.878;6.168;2022-12-01T14:18:15;6.70;99.90
59148;DHT22;44930;52.878;6.168;2022-12-01T14:20:45;6.70;99.90
59148;DHT22;44930;52.878;6.168;2022-12-01T14:25:57;6.80;99.90
59148;DHT22;44930;52.878;6.168;2022-12-01T14:31:09;6.70;99.90
59148;DHT22;44930;52.878;6.168;2022-12-01T14:38:41;6.70;99.90
59148;DHT22;44930;52.878;6.168;2022-12-01T14:41:08;6.60;99.90
59148;DHT22;44930;52.878;6.168;2022-12-01T14:43:34;6.50;99.90
59148;DHT22;44930;52.878;6.168;2022-12-01T14:46:22;6.60;99.90
59148;DHT22;44930;52.878;6.168;2022-12-01T14:48:48;6.70;99.90
59148;DHT22;44930;52.878;6.168;2022-12-01T14:51:30;6.70;99.90
59148;DHT22;44930;52.878;6.168;2022-12-01T14:53:58;6.40;99.90
59148;DHT22;44930;52.878;6.168;2022-12-01T14:56:25;6.50;99.90
59148;DHT22;44930;52.878;6.168;2022-12-01T14:58:55;6.50;99.90
59148;DHT22;44930;52.878;6.168;2022-12-01T15:01:22;6.50;99.90
59148;DHT22;44930;52.878;6.168;2022-12-01T15:03:50;6.50;99.90
59148;DHT22;44930;52.878;6.168;2022-12-01T15:06:21;6.40;99.90
59148;DHT22;44930;52.878;6.168;2022-12-01T15:09:04;6.60;99.90
59148;DHT22;44930;52.878;6.168;2022-12-01T15:11:30;6.30;99.90
59148;DHT22;44930;52.878;6.168;2022-12-01T15:13:56;6.30;99.90
59148;DHT22;44930;52.878;6.168;2022-12-01T15:16:24;6.10;99.90
59148;DHT22;44930;52.878;6.168;2022-12-01T15:18:50;6.20;99.90
59148;DHT22;44930;52.878;6.168;2022-12-01T15:21:21;6.40;99.90
59148;DHT22;44930;52.878;6.168;2022-12-01T15:26:36;6.20;99.90
59148;DHT22;44930;52.878;6.168;2022-12-01T15:29:30;6.20;99.90
59148;DHT22;44930;52.878;6.168;2022-12-01T15:32:01;6.10;99.90
59148;DHT22;44930;52.878;6.168;2022-12-01T15:34:32;6.00;99.90
59148;DHT22;44930;52.878;6.168;2022-12-01T15:37:03;6.00;99.90
59148;DHT22;44930;52.878;6.168;2022-12-01T15:39:35;6.10;99.90
59148;DHT22;44930;52.878;6.168;2022-12-01T15:42:01;6.10;99.90
59148;DHT22;44930;52.878;6.168;2022-12-01T15:44:35;6.00;99.90
59148;DHT22;44930;52.878;6.168;2022-12-01T15:50:05;5.70;99.90
59148;DHT22;44930;52.878;6.168;2022-12-01T15:55:02;5.70;99.90
59148;DHT22;44930;52.878;6.168;2022-12-01T15:57:28;5.80;99.90
59148;DHT22;44930;52.878;6.168;2022-12-01T15:59:55;5.60;99.90
59148;DHT22;44930;52.878;6.168;2022-12-01T16:02:30;5.60;99.90
59148;DHT22;44930;52.878;6.168;2022-12-01T16:07:33;5.60;99.90
59148;DHT22;44930;52.878;6.168;2022-12-01T16:10:00;5.50;99.90
59148;DHT22;44930;52.878;6.168;2022-12-01T16:12:31;5.60;99.90
59148;DHT22;44930;52.878;6.168;2022-12-01T16:17:42;5.60;99.90
59148;DHT22;44930;52.878;6.168;2022-12-01T16:20:23;5.70;99.90
59148;DHT22;44930;52.878;6.168;2022-12-01T16:22:53;5.50;99.90
59148;DHT22;44930;52.878;6.168;2022-12-01T16:25:34;5.50;99.90
59148;DHT22;44930;52.878;6.168;2022-12-01T16:28:01;5.70;99.90
59148;DHT22;44930;52.878;6.168;2022-12-01T16:30:33;5.60;99.90
59148;DHT22;44930;52.878;6.168;2022-12-01T16:35:28;5.50;99.90
59148;DHT22;44930;52.878;6.168;2022-12-01T16:37:55;5.50;99.90
59148;DHT22;44930;52.878;6.168;2022-12-01T16:40:21;5.50;99.90
59148;DHT22;44930;52.878;6.168;2022-12-01T16:42:47;5.50;99.90
59148;DHT22;44930;52.878;6.168;2022-12-01T16:45:16;5.20;99.90
59148;DHT22;44930;52.878;6.168;2022-12-01T16:47:43;5.50;99.90
59148;DHT22;44930;52.878;6.168;2022-12-01T16:50:14;5.20;99.90
59148;DHT22;44930;52.878;6.168;2022-12-01T16:52:40;5.50;99.90
59148;DHT22;44930;52.878;6.168;2022-12-01T16:55:23;5.60;99.90
59148;DHT22;44930;52.878;6.168;2022-12-01T16:57:49;5.60;99.90
59148;DHT22;44930;52.878;6.168;2022-12-01T17:00:15;5.50;99.90
59148;DHT22;44930;52.878;6.168;2022-12-01T17:02:41;5.60;99.90
59148;DHT22;44930;52.878;6.168;2022-12-01T17:05:09;5.60;99.90
59148;DHT22;44930;52.878;6.168;2022-12-01T17:07:35;5.70;99.90
59148;DHT22;44930;52.878;6.168;2022-12-01T17:10:01;5.40;99.90
59148;DHT22;44930;52.878;6.168;2022-12-01T17:12:26;5.50;99.90
59148;DHT22;44930;52.878;6.168;2022-12-01T17:14:52;5.50;99.90
59148;DHT22;44930;52.878;6.168;2022-12-01T17:17:17;5.50;99.90
59148;DHT22;44930;52.878;6.168;2022-12-01T17:19:43;5.60;99.90
59148;DHT22;44930;52.878;6.168;2022-12-01T17:24:34;5.60;99.90
59148;DHT22;44930;52.878;6.168;2022-12-01T17:27:00;5.60;99.90
59148;DHT22;44930;52.878;6.168;2022-12-01T17:29:25;5.60;99.90
59148;DHT22;44930;52.878;6.168;2022-12-01T17:31:51;5.70;99.90
59148;DHT22;44930;52.878;6.168;2022-12-01T17:34:16;5.70;99.90
59148;DHT22;44930;52.878;6.168;2022-12-01T17:36:42;5.60;99.90
59148;DHT22;44930;52.878;6.168;2022-12-01T17:39:08;5.60;99.90
59148;DHT22;44930;52.878;6.168;2022-12-01T17:41:33;5.50;99.90
59148;DHT22;44930;52.878;6.168;2022-12-01T17:44:04;5.80;99.90
59148;DHT22;44930;52.878;6.168;2022-12-01T17:46:30;5.70;99.90
59148;DHT22;44930;52.878;6.168;2022-12-01T17:48:56;5.40;99.90
59148;DHT22;44930;52.878;6.168;2022-12-01T17:51:21;5.60;99.90
59148;DHT22;44930;52.878;6.168;2022-12-01T17:53:47;5.50;99.90
59148;DHT22;44930;52.878;6.168;2022-12-01T17:56:14;5.40;99.90
59148;DHT22;44930;52.878;6.168;2022-12-01T17:58:40;5.50;99.90
59148;DHT22;44930;52.878;6.168;2022-12-01T18:01:15;5.60;99.90
59148;DHT22;44930;52.878;6.168;2022-12-01T18:03:42;5.50;99.90
59148;DHT22;44930;52.878;6.168;2022-12-01T18:06:08;5.20;99.90
59148;DHT22;44930;52.878;6.168;2022-12-01T18:08:35;5.50;99.90
59148;DHT22;44930;52.878;6.168;2022-12-01T18:11:02;5.40;99.90
59148;DHT22;44930;52.878;6.168;2022-12-01T18:13:37;5.50;99.90
59148;DHT22;44930;52.878;6.168;2022-12-01T18:16:11;5.60;99.90
59148;DHT22;44930;52.878;6.168;2022-12-01T18:18:37;5.40;99.90
59148;DHT22;44930;52.878;6.168;2022-12-01T18:21:08;5.40;99.90
59148;DHT22;44930;52.878;6.168;2022-12-01T18:23:35;5.40;99.90
59148;DHT22;44930;52.878;6.168;2022-12-01T18:26:06;5.40;99.90
59148;DHT22;44930;52.878;6.168;2022-12-01T18:28:33;5.30;99.90
59148;DHT22;44930;52.878;6.168;2022-12-01T18:31:14;5.40;99.90
59148;DHT22;44930;52.878;6.168;2022-12-01T18:33:41;5.20;99.90
59148;DHT22;44930;52.878;6.168;2022-12-01T18:38:38;5.40;99.90
59148;DHT22;44930;52.878;6.168;2022-12-01T18:41:03;5.20;99.90
59148;DHT22;44930;52.878;6.168;2022-12-01T18:43:30;5.30;99.90
59148;DHT22;44930;52.878;6.168;2022-12-01T18:45:56;5.40;99.90
59148;DHT22;44930;52.878;6.168;2022-12-01T18:48:23;5.30;99.90
59148;DHT22;44930;52.878;6.168;2022-12-01T18:50:48;5.30;99.90
59148;DHT22;44930;52.878;6.168;2022-12-01T18:53:14;5.30;99.90
59148;DHT22;44930;52.878;6.168;2022-12-01T18:58:06;5.30;99.90
59148;DHT22;44930;52.878;6.168;2022-12-01T19:05:24;5.20;99.90